createdAt,value
2024-04-21T00:00:15.010Z,1.27
2024-04-21T00:02:46.771Z,1.65
2024-04-21T00:05:18.598Z,1.65
2024-04-21T00:07:50.453Z,1.92
2024-04-21T00:10:22.335Z,1.83
2024-04-21T00:12:54.228Z,2.15
2024-04-21T00:15:25.945Z,1.70
2024-04-21T00:17:57.734Z,1.95
2024-04-21T00:20:29.415Z,1.65
2024-04-21T00:23:01.112Z,2.45
2024-04-21T00:25:33.074Z,1.10
2024-04-21T00:28:05.216Z,2.22
2024-04-21T00:30:37.029Z,1.63
2024-04-21T00:33:08.832Z,1.98
2024-04-21T00:35:45.202Z,1.65
2024-04-21T00:38:17.218Z,1.63
2024-04-21T00:40:49.133Z,2.22
2024-04-21T00:43:20.900Z,1.80
2024-04-21T00:45:52.985Z,1.75
2024-04-21T00:48:24.888Z,1.38
2024-04-21T00:50:56.997Z,1.60
2024-04-21T00:53:29.319Z,1.63
2024-04-21T00:56:01.093Z,2.10
2024-04-21T00:58:32.781Z,1.80
2024-04-21T01:01:05.492Z,2.10
2024-04-21T01:06:24.231Z,1.80
2024-04-21T01:08:56.079Z,1.42
2024-04-21T01:11:27.941Z,1.88
2024-04-21T01:13:59.812Z,1.80
2024-04-21T01:16:31.669Z,2.10
2024-04-21T01:19:04.017Z,1.77
2024-04-21T01:21:36.254Z,2.17
2024-04-21T01:24:07.944Z,1.83
2024-04-21T01:26:42.918Z,1.77
2024-04-21T01:29:14.619Z,1.83
2024-04-21T01:31:49.606Z,1.33
2024-04-21T01:34:21.417Z,1.50
2024-04-21T01:36:56.047Z,1.45
2024-04-21T01:39:28.543Z,1.40
2024-04-21T01:42:00.621Z,1.77
2024-04-21T01:44:32.288Z,1.73
2024-04-21T01:47:04.068Z,1.00
2024-04-21T01:49:35.920Z,1.80
2024-04-21T01:52:08.138Z,1.42
2024-04-21T01:54:40.046Z,2.45
2024-04-21T01:57:11.703Z,1.25
2024-04-21T01:59:43.642Z,1.67
2024-04-21T02:02:15.408Z,1.48
2024-04-21T02:04:47.772Z,1.30
2024-04-21T02:07:19.631Z,1.77
2024-04-21T02:09:51.431Z,1.33
2024-04-21T02:12:23.161Z,1.38
2024-04-21T02:14:55.360Z,1.25
2024-04-21T02:17:29.906Z,1.50
2024-04-21T02:20:02.141Z,1.33
2024-04-21T02:22:36.620Z,1.17
2024-04-21T02:25:08.790Z,1.48
2024-04-21T02:27:40.562Z,1.40
2024-04-21T02:30:12.982Z,1.40
2024-04-21T02:32:44.754Z,1.73
2024-04-21T02:35:19.696Z,1.20
2024-04-21T02:37:51.523Z,1.92
2024-04-21T02:40:23.561Z,2.03
2024-04-21T02:42:55.309Z,1.73
2024-04-21T02:45:29.891Z,1.73
2024-04-21T02:48:01.750Z,1.35
2024-04-21T02:50:38.274Z,1.60
2024-04-21T02:53:09.966Z,1.40
2024-04-21T02:55:45.607Z,1.98
2024-04-21T02:58:19.564Z,1.70
2024-04-21T03:00:51.373Z,1.60
2024-04-21T03:03:23.645Z,1.95
2024-04-21T03:05:57.038Z,1.90
2024-04-21T03:08:28.900Z,2.25
2024-04-21T03:11:00.887Z,2.45
2024-04-21T03:13:33.197Z,1.83
2024-04-21T03:16:06.152Z,2.20
2024-04-21T03:18:38.173Z,2.10
2024-04-21T03:21:10.126Z,2.70
2024-04-21T03:23:42.088Z,2.38
2024-04-21T03:26:13.996Z,2.03
2024-04-21T03:28:46.185Z,2.72
2024-04-21T03:31:17.886Z,2.05
2024-04-21T03:33:49.623Z,2.30
2024-04-21T03:36:21.563Z,2.45
2024-04-21T03:38:53.406Z,2.80
2024-04-21T03:41:25.252Z,2.97
2024-04-21T03:43:57.368Z,3.22
2024-04-21T03:46:29.186Z,3.55
2024-04-21T03:49:00.904Z,3.50
2024-04-21T03:51:32.818Z,3.30
2024-04-21T03:54:04.493Z,3.42
2024-04-21T03:56:36.232Z,3.38
2024-04-21T03:59:08.558Z,3.78
2024-04-21T04:01:40.501Z,3.40
2024-04-21T04:04:15.224Z,3.53
2024-04-21T04:06:47.108Z,3.72
2024-04-21T04:09:19.003Z,3.75
2024-04-21T04:11:51.639Z,3.50
2024-04-21T04:14:23.409Z,3.75
2024-04-21T04:16:55.129Z,3.80
2024-04-21T04:19:27.171Z,3.97
2024-04-21T04:21:59.081Z,4.10
2024-04-21T04:24:31.048Z,3.92
2024-04-21T04:27:02.929Z,3.85
2024-04-21T04:29:34.743Z,3.22
2024-04-21T04:32:06.747Z,4.45
2024-04-21T04:34:38.845Z,4.32
2024-04-21T04:37:11.022Z,4.70
2024-04-21T04:39:42.877Z,3.75
2024-04-21T04:42:15.233Z,4.93
2024-04-21T04:44:47.084Z,4.03
2024-04-21T04:47:18.800Z,3.70
2024-04-21T04:49:52.567Z,4.10
2024-04-21T04:52:24.415Z,5.90
2024-04-21T04:54:59.569Z,4.75
2024-04-21T04:57:31.573Z,4.05
2024-04-21T05:00:03.542Z,3.63
2024-04-21T05:02:35.245Z,3.70
2024-04-21T05:05:09.238Z,4.38
2024-04-21T05:07:41.080Z,3.78
2024-04-21T05:10:15.317Z,4.15
2024-04-21T05:12:47.684Z,3.67
2024-04-21T05:15:20.458Z,4.32
2024-04-21T05:17:52.438Z,4.22
2024-04-21T05:20:24.492Z,3.60
2024-04-21T05:22:56.348Z,4.22
2024-04-21T05:25:28.403Z,3.47
2024-04-21T05:28:00.122Z,3.10
2024-04-21T05:30:33.514Z,3.60
2024-04-21T05:33:06.052Z,3.92
2024-04-21T05:35:37.839Z,3.42
2024-04-21T05:38:12.750Z,3.70
2024-04-21T05:40:44.649Z,3.72
2024-04-21T05:43:17.388Z,3.05
2024-04-21T05:45:49.171Z,3.88
2024-04-21T05:48:21.414Z,2.55
2024-04-21T05:50:53.176Z,3.28
2024-04-21T05:53:25.137Z,2.97
2024-04-21T05:55:56.926Z,3.03
2024-04-21T05:58:28.701Z,3.55
2024-04-21T06:01:01.340Z,3.47
2024-04-21T06:03:33.500Z,3.38
2024-04-21T06:06:05.429Z,3.60
2024-04-21T06:08:37.634Z,3.75
2024-04-21T06:11:10.535Z,4.82
2024-04-21T06:13:42.338Z,3.72
2024-04-21T06:16:14.351Z,3.80
2024-04-21T06:18:49.078Z,3.95
2024-04-21T06:21:21.733Z,4.32
2024-04-21T06:23:53.457Z,4.22
2024-04-21T06:26:25.332Z,3.88
2024-04-21T06:28:57.172Z,3.80
2024-04-21T06:31:30.617Z,4.07
2024-04-21T06:34:02.550Z,21.02
2024-04-21T06:36:34.320Z,13.55
2024-04-21T06:39:08.235Z,6.57
2024-04-21T06:41:40.148Z,4.38
2024-04-21T06:44:12.731Z,4.28
2024-04-21T06:46:46.187Z,3.47
2024-04-21T06:49:18.186Z,4.07
2024-04-21T06:51:50.101Z,3.90
2024-04-21T06:54:24.910Z,3.78
2024-04-21T06:56:56.831Z,4.10
2024-04-21T06:59:28.802Z,3.13
2024-04-21T07:02:00.663Z,3.55
2024-04-21T07:04:34.018Z,3.85
2024-04-21T07:07:05.871Z,3.28
2024-04-21T07:09:42.082Z,3.22
2024-04-21T07:12:14.068Z,3.50
2024-04-21T07:14:46.013Z,3.22
2024-04-21T07:17:17.937Z,3.25
2024-04-21T07:19:49.762Z,2.78
2024-04-21T07:22:21.698Z,2.63
2024-04-21T07:24:53.592Z,3.25
2024-04-21T07:27:25.314Z,3.03
2024-04-21T07:29:59.489Z,2.92
2024-04-21T07:32:31.321Z,2.92
2024-04-21T07:35:03.405Z,2.97
2024-04-21T07:37:35.457Z,2.70
2024-04-21T07:40:08.082Z,3.40
2024-04-21T07:42:39.902Z,2.67
2024-04-21T07:45:11.551Z,3.55
2024-04-21T07:47:43.439Z,3.10
2024-04-21T07:50:15.407Z,2.53
2024-04-21T07:52:47.242Z,3.15
2024-04-21T07:55:18.977Z,2.70
2024-04-21T07:57:50.744Z,3.50
2024-04-21T08:00:22.642Z,2.97
2024-04-21T08:02:56.989Z,2.60
2024-04-21T08:05:29.159Z,2.90
2024-04-21T08:08:01.187Z,2.28
2024-04-21T08:10:34.831Z,3.05
2024-04-21T08:13:09.494Z,2.35
2024-04-21T08:15:41.349Z,2.92
2024-04-21T08:18:13.274Z,3.05
2024-04-21T08:20:48.083Z,2.50
2024-04-21T08:23:22.025Z,2.80
2024-04-21T08:25:53.724Z,3.08
2024-04-21T08:28:25.550Z,2.80
2024-04-21T08:30:57.670Z,2.50
2024-04-21T08:33:29.575Z,2.58
2024-04-21T08:36:01.310Z,2.72
2024-04-21T08:38:33.305Z,3.63
2024-04-21T08:41:10.881Z,2.70
2024-04-21T08:43:43.007Z,3.67
2024-04-21T08:46:15.316Z,3.42
2024-04-21T08:48:47.777Z,2.38
2024-04-21T08:51:20.074Z,1.80
2024-04-21T08:53:52.068Z,2.75
2024-04-21T08:56:24.636Z,2.22
2024-04-21T08:58:56.534Z,2.70
2024-04-21T09:01:28.582Z,2.42
2024-04-21T09:04:01.516Z,2.03
2024-04-21T09:06:34.724Z,2.25
2024-04-21T09:09:06.812Z,2.10
2024-04-21T09:11:40.398Z,2.17
2024-04-21T09:14:12.916Z,2.00
2024-04-21T09:16:44.701Z,2.50
2024-04-21T09:19:16.761Z,3.22
2024-04-21T09:21:48.379Z,2.90
2024-04-21T09:24:20.448Z,2.50
2024-04-21T09:26:52.307Z,2.17
2024-04-21T09:29:24.446Z,3.08
2024-04-21T09:31:56.202Z,2.55
2024-04-21T09:34:28.478Z,2.10
2024-04-21T09:37:00.628Z,2.58
2024-04-21T09:39:36.507Z,2.00
2024-04-21T09:42:08.532Z,2.50
2024-04-21T09:44:41.113Z,2.35
2024-04-21T09:47:16.440Z,2.55
2024-04-21T09:49:48.655Z,3.17
2024-04-21T09:52:22.168Z,2.72
2024-04-21T09:54:54.182Z,3.83
2024-04-21T09:57:26.116Z,2.63
2024-04-21T10:00:03.397Z,2.50
2024-04-21T10:02:41.897Z,2.22
2024-04-21T10:05:16.690Z,2.78
2024-04-21T10:07:51.716Z,2.28
2024-04-21T10:10:25.635Z,2.50
2024-04-21T10:12:59.398Z,2.53
2024-04-21T10:15:32.085Z,2.97
2024-04-21T10:18:04.497Z,2.38
2024-04-21T10:20:38.456Z,2.25
2024-04-21T10:23:11.851Z,3.17
2024-04-21T10:25:48.205Z,2.38
2024-04-21T10:28:30.082Z,4.47
2024-04-21T10:31:09.044Z,2.50
2024-04-21T10:33:44.891Z,2.03
2024-04-21T10:36:21.089Z,2.28
2024-04-21T10:38:56.978Z,1.70
2024-04-21T10:41:30.100Z,1.48
2024-04-21T10:44:02.290Z,1.77
2024-04-21T10:46:34.447Z,2.50
2024-04-21T10:49:06.447Z,1.88
2024-04-21T10:51:38.769Z,1.88
2024-04-21T10:54:11.065Z,1.90
2024-04-21T10:56:45.579Z,1.95
2024-04-21T10:59:17.551Z,1.70
2024-04-21T11:01:51.544Z,1.90
2024-04-21T11:04:27.271Z,2.20
2024-04-21T11:06:59.280Z,1.90
2024-04-21T11:09:31.751Z,1.80
2024-04-21T11:12:03.958Z,2.33
2024-04-21T11:14:36.047Z,2.42
2024-04-21T11:17:08.718Z,2.30
2024-04-21T11:19:40.571Z,2.03
2024-04-21T11:22:12.902Z,1.73
2024-04-21T11:24:45.662Z,2.33
2024-04-21T11:27:18.169Z,2.58
2024-04-21T11:29:50.524Z,2.15
2024-04-21T11:32:22.667Z,2.78
2024-04-21T11:34:54.575Z,5.10
2024-04-21T11:37:28.551Z,1.95
2024-04-21T11:40:00.474Z,2.20
2024-04-21T11:42:32.567Z,1.63
2024-04-21T11:45:04.549Z,2.10
2024-04-21T11:47:36.623Z,2.20
2024-04-21T11:50:10.336Z,2.28
2024-04-21T11:52:42.224Z,1.70
2024-04-21T11:55:13.935Z,2.65
2024-04-21T11:57:45.815Z,1.80
2024-04-21T12:00:17.681Z,2.30
2024-04-21T12:02:49.511Z,2.50
2024-04-21T12:05:21.412Z,2.15
2024-04-21T12:07:53.211Z,2.53
2024-04-21T12:10:25.477Z,1.60
2024-04-21T12:12:57.395Z,2.33
2024-04-21T12:15:30.338Z,1.88
2024-04-21T12:18:09.570Z,1.95
2024-04-21T12:20:41.404Z,1.95
2024-04-21T12:23:13.386Z,2.10
2024-04-21T12:25:45.032Z,2.13
2024-04-21T12:28:16.754Z,2.08
2024-04-21T12:30:48.494Z,1.88
2024-04-21T12:33:20.408Z,1.83
2024-04-21T12:35:52.165Z,1.85
2024-04-21T12:38:23.882Z,2.30
2024-04-21T12:40:56.360Z,2.20
2024-04-21T12:43:28.202Z,2.13
2024-04-21T12:45:59.945Z,2.22
2024-04-21T12:48:31.732Z,2.28
2024-04-21T12:51:03.628Z,2.65
2024-04-21T12:53:35.748Z,2.55
2024-04-21T12:56:07.546Z,3.45
2024-04-21T12:58:39.296Z,2.47
2024-04-21T13:01:11.098Z,3.00
2024-04-21T13:03:42.931Z,2.80
2024-04-21T13:06:14.890Z,3.30
2024-04-21T13:08:46.620Z,3.28
2024-04-21T13:11:18.458Z,3.08
2024-04-21T13:13:50.214Z,2.90
2024-04-21T13:16:22.050Z,2.92
2024-04-21T13:18:53.908Z,2.25
2024-04-21T13:21:25.710Z,2.97
2024-04-21T13:23:57.446Z,3.10
2024-04-21T13:26:29.168Z,2.85
2024-04-21T13:29:01.310Z,3.20
2024-04-21T13:31:34.920Z,2.85
2024-04-21T13:34:06.733Z,3.38
2024-04-21T13:36:40.582Z,3.38
2024-04-21T13:39:12.459Z,3.47
2024-04-21T13:41:44.237Z,3.28
2024-04-21T13:44:15.897Z,3.50
2024-04-21T13:46:48.346Z,2.92
2024-04-21T13:49:20.386Z,2.97
2024-04-21T13:51:52.249Z,2.75
2024-04-21T13:54:23.939Z,2.63
2024-04-21T13:56:58.449Z,2.70
2024-04-21T13:59:30.134Z,5.22
2024-04-21T14:02:02.372Z,3.05
2024-04-21T14:04:34.065Z,2.63
2024-04-21T14:07:06.073Z,2.75
2024-04-21T14:09:38.627Z,2.80
2024-04-21T14:12:10.334Z,2.63
2024-04-21T14:14:42.108Z,2.38
2024-04-21T14:17:14.051Z,2.67
2024-04-21T14:19:45.815Z,2.80
2024-04-21T14:22:17.633Z,2.17
2024-04-21T14:24:49.389Z,2.90
2024-04-21T14:27:21.048Z,2.40
2024-04-21T14:32:26.631Z,3.00
2024-04-21T14:34:58.589Z,2.30
2024-04-21T14:37:30.460Z,2.42
2024-04-21T14:40:03.254Z,2.35
2024-04-21T14:42:35.060Z,2.55
2024-04-21T14:45:11.880Z,2.40
2024-04-21T14:47:45.922Z,3.20
2024-04-21T14:50:17.756Z,2.53
2024-04-21T14:52:52.995Z,2.53
2024-04-21T14:55:24.807Z,2.75
2024-04-21T14:57:56.543Z,3.00
2024-04-21T15:00:29.548Z,2.47
2024-04-21T15:03:01.259Z,2.67
2024-04-21T15:05:32.956Z,2.70
2024-04-21T15:08:05.691Z,2.72
2024-04-21T15:10:37.561Z,2.92
2024-04-21T15:13:09.277Z,2.85
2024-04-21T15:15:41.021Z,2.65
2024-04-21T15:18:12.714Z,2.58
2024-04-21T15:20:48.351Z,2.58
2024-04-21T15:23:20.441Z,2.83
2024-04-21T15:25:52.486Z,3.22
2024-04-21T15:28:24.205Z,2.50
2024-04-21T15:30:56.481Z,2.33
2024-04-21T15:33:28.329Z,2.20
2024-04-21T15:36:00.168Z,2.33
2024-04-21T15:38:31.829Z,3.22
2024-04-21T15:41:03.674Z,2.90
2024-04-21T15:43:35.630Z,2.58
2024-04-21T15:46:07.528Z,1.95
2024-04-21T15:48:39.383Z,2.80
2024-04-21T15:51:11.379Z,2.00
2024-04-21T15:53:43.114Z,2.45
2024-04-21T15:56:14.879Z,2.75
2024-04-21T15:58:46.583Z,2.40
2024-04-21T16:01:18.435Z,2.10
2024-04-21T16:03:50.235Z,2.40
2024-04-21T16:06:22.075Z,3.00
2024-04-21T16:08:54.086Z,3.33
2024-04-21T16:11:25.908Z,2.17
2024-04-21T16:13:57.766Z,2.15
2024-04-21T16:16:29.669Z,2.17
2024-04-21T16:19:01.600Z,2.38
2024-04-21T16:21:33.659Z,2.33
2024-04-21T16:24:05.864Z,1.88
2024-04-21T16:26:37.658Z,2.13
2024-04-21T16:29:09.475Z,2.20
2024-04-21T16:31:43.016Z,2.80
2024-04-21T16:34:16.036Z,2.35
2024-04-21T16:36:48.414Z,2.97
2024-04-21T16:39:21.421Z,2.42
2024-04-21T16:41:53.320Z,2.58
2024-04-21T16:44:25.349Z,3.38
2024-04-21T16:46:57.649Z,4.40
2024-04-21T16:49:29.992Z,3.78
2024-04-21T16:52:03.074Z,3.33
2024-04-21T16:54:35.083Z,3.42
2024-04-21T16:57:18.602Z,2.83
2024-04-21T16:59:55.292Z,2.50
2024-04-21T17:02:27.272Z,2.42
2024-04-21T17:04:59.609Z,2.83
2024-04-21T17:07:39.902Z,2.33
2024-04-21T17:10:12.569Z,3.05
2024-04-21T17:12:44.313Z,2.95
2024-04-21T17:15:16.000Z,2.92
2024-04-21T17:17:47.689Z,3.17
2024-04-21T17:20:19.550Z,3.17
2024-04-21T17:22:51.228Z,3.65
2024-04-21T17:25:22.996Z,2.60
2024-04-21T17:27:54.746Z,2.65
2024-04-21T17:30:28.587Z,3.00
2024-04-21T17:33:01.029Z,2.78
2024-04-21T17:35:32.831Z,3.00
2024-04-21T17:38:04.710Z,2.65
2024-04-21T17:40:36.626Z,2.72
2024-04-21T17:43:08.365Z,2.50
2024-04-21T17:45:40.211Z,2.47
2024-04-21T17:48:12.010Z,2.92
2024-04-21T17:50:44.917Z,2.50
2024-04-21T17:53:16.687Z,3.45
2024-04-21T17:55:49.474Z,3.22
2024-04-21T17:58:21.224Z,2.42
2024-04-21T18:00:52.994Z,2.03
2024-04-21T18:03:24.694Z,2.63
2024-04-21T18:05:56.347Z,2.30
2024-04-21T18:08:28.033Z,2.72
2024-04-21T18:11:00.502Z,2.40
2024-04-21T18:13:32.711Z,2.45
2024-04-21T18:16:04.919Z,2.72
2024-04-21T18:18:37.887Z,2.92
2024-04-21T18:21:09.780Z,2.80
2024-04-21T18:23:42.461Z,2.33
2024-04-21T18:26:14.618Z,2.30
2024-04-21T18:28:49.679Z,2.35
2024-04-21T18:31:21.721Z,3.88
2024-04-21T18:33:56.995Z,2.63
2024-04-21T18:36:32.934Z,2.45
2024-04-21T18:39:40.538Z,3.55
2024-04-21T18:42:11.930Z,4.47
2024-04-21T18:44:46.560Z,4.85
2024-04-21T18:47:18.296Z,3.78
2024-04-21T18:49:50.076Z,3.20
2024-04-21T18:52:22.075Z,2.88
2024-04-21T18:54:53.822Z,2.83
2024-04-21T18:57:25.548Z,2.95
2024-04-21T18:59:57.257Z,3.40
2024-04-21T19:02:29.020Z,2.78
2024-04-21T19:05:21.163Z,3.63
2024-04-21T19:07:52.880Z,4.28
2024-04-21T19:10:25.057Z,4.60
2024-04-21T19:12:57.096Z,3.40
2024-04-21T19:15:29.169Z,3.50
2024-04-21T19:18:02.326Z,4.40
2024-04-21T19:20:34.575Z,5.90
2024-04-21T19:23:10.125Z,4.35
2024-04-21T19:25:42.312Z,3.25
2024-04-21T19:28:14.073Z,2.70
2024-04-21T19:30:45.994Z,3.50
2024-04-21T19:33:19.364Z,3.60
2024-04-21T19:35:51.159Z,3.60
2024-04-21T19:38:25.386Z,4.55
2024-04-21T19:40:57.112Z,5.43
2024-04-21T19:43:32.065Z,3.42
2024-04-21T19:46:03.959Z,3.78
2024-04-21T19:48:35.709Z,5.65
2024-04-21T19:51:07.896Z,3.25
2024-04-21T19:53:39.632Z,2.95
2024-04-21T19:56:11.549Z,3.85
2024-04-21T19:58:43.294Z,4.20
2024-04-21T20:01:16.810Z,5.65
2024-04-21T20:03:48.637Z,5.65
2024-04-21T20:06:25.371Z,21.27
2024-04-21T20:08:57.217Z,6.22
2024-04-21T20:11:28.916Z,4.50
2024-04-21T20:14:00.593Z,3.63
2024-04-21T20:16:51.109Z,4.47
2024-04-21T20:19:22.999Z,4.70
2024-04-21T20:21:55.418Z,6.30
2024-04-21T20:24:27.341Z,6.35
2024-04-21T20:26:59.042Z,6.57
2024-04-21T20:29:32.650Z,4.53
2024-04-21T20:32:04.694Z,5.18
2024-04-21T20:34:36.576Z,5.95
2024-04-21T20:37:08.562Z,5.20
2024-04-21T20:39:41.160Z,4.63
2024-04-21T20:42:12.958Z,4.93
2024-04-21T20:44:44.701Z,5.68
2024-04-21T20:47:16.472Z,5.60
2024-04-21T20:49:48.326Z,5.55
2024-04-21T20:52:20.142Z,6.30
2024-04-21T20:54:51.931Z,6.85
2024-04-21T20:57:27.597Z,5.95
2024-04-21T21:00:01.884Z,6.13
2024-04-21T21:02:33.584Z,6.15
2024-04-21T21:05:05.866Z,6.30
2024-04-21T21:07:37.647Z,7.13
2024-04-21T21:10:10.333Z,6.65
2024-04-21T21:12:43.740Z,7.03
2024-04-21T21:15:17.150Z,8.15
2024-04-21T21:17:49.018Z,6.90
2024-04-21T21:20:20.749Z,7.05
2024-04-21T21:22:53.005Z,6.35
2024-04-21T21:25:25.302Z,5.78
2024-04-21T21:27:59.403Z,6.70
2024-04-21T21:30:34.037Z,6.05
2024-04-21T21:33:06.279Z,6.15
2024-04-21T21:35:38.975Z,5.53
2024-04-21T21:38:10.766Z,6.28
2024-04-21T21:40:42.658Z,4.72
2024-04-21T21:43:14.409Z,5.10
2024-04-21T21:45:46.117Z,5.75
2024-04-21T21:48:17.969Z,5.38
2024-04-21T21:50:49.813Z,5.65
2024-04-21T21:53:21.894Z,4.85
2024-04-21T21:55:53.524Z,6.30
2024-04-21T21:58:25.430Z,5.47
2024-04-21T22:00:57.229Z,6.20
2024-04-21T22:03:28.992Z,5.25
2024-04-21T22:06:00.730Z,5.30
2024-04-21T22:08:32.427Z,6.22
2024-04-21T22:11:04.602Z,6.00
2024-04-21T22:13:36.521Z,6.00
2024-04-21T22:16:09.461Z,6.28
2024-04-21T22:18:41.917Z,6.32
2024-04-21T22:21:13.645Z,6.13
2024-04-21T22:23:45.547Z,5.45
2024-04-21T22:26:17.275Z,5.65
2024-04-21T22:28:49.151Z,6.43
2024-04-21T22:31:20.833Z,5.65
2024-04-21T22:33:52.579Z,5.63
2024-04-21T22:36:24.470Z,6.03
2024-04-21T22:38:56.411Z,5.88
2024-04-21T22:41:28.278Z,5.53
2024-04-21T22:44:00.365Z,5.47
2024-04-21T22:46:32.176Z,5.40
2024-04-21T22:49:04.326Z,5.63
2024-04-21T22:51:36.269Z,5.28
2024-04-21T22:54:10.065Z,5.80
2024-04-21T22:56:42.004Z,5.18
2024-04-21T22:59:13.863Z,5.80
2024-04-21T23:01:47.145Z,5.65
2024-04-21T23:04:18.981Z,6.30
2024-04-21T23:06:50.859Z,6.55
2024-04-21T23:09:22.863Z,6.85
2024-04-21T23:11:54.490Z,7.07
2024-04-21T23:14:27.527Z,6.28
2024-04-21T23:16:59.346Z,7.60
2024-04-21T23:19:31.078Z,6.15
2024-04-21T23:22:02.809Z,5.95
2024-04-21T23:24:34.662Z,6.47
2024-04-21T23:27:06.473Z,6.88
2024-04-21T23:29:38.197Z,6.70
2024-04-21T23:32:10.051Z,6.43
2024-04-21T23:34:41.824Z,5.80
2024-04-21T23:37:13.519Z,5.43
2024-04-21T23:39:45.293Z,6.43
2024-04-21T23:42:17.055Z,5.50
2024-04-21T23:44:49.015Z,5.97
2024-04-21T23:47:22.498Z,5.15
2024-04-21T23:49:54.382Z,6.60
2024-04-21T23:52:26.338Z,6.60
2024-04-21T23:54:58.289Z,6.38
2024-04-21T23:57:30.187Z,6.03
